Time;durP1;ratioP1;P1;durP2;ratioP2;P2;SDS_P1;SDS_P2;PMS_P1;PMS_P2;Temp;Humidity;BMP_temperature;BMP_pressure;BME280_temperature;BME280_humidity;BME280_pressure;Samples;Min_cycle;Max_cycle;Signal;HPM_P1;HPM_P2
2021/12/29 00:00:27;;;;;;;48.07;19.87;;;;;;;-4.51;90.90;99165.34;4193272;28;20302;-63
2021/12/29 00:02:56;;;;;;;52.70;20.67;;;;;;;-4.49;90.74;99172.13;4199140;28;20236;-63
2021/12/29 00:05:24;;;;;;;55.57;21.10;;;;;;;-4.54;91.07;99168.09;4197428;28;20952;-63
2021/12/29 00:07:50;;;;;;;54.50;19.57;;;;;;;-4.49;91.33;99160.91;4204308;28;20224;-63
2021/12/29 00:10:18;;;;;;;50.07;20.60;;;;;;;-4.47;91.05;99169.47;4194624;28;20338;-64
2021/12/29 00:12:49;;;;;;;55.13;20.83;;;;;;;-4.47;91.13;99169.47;4195368;28;21211;-66
2021/12/29 00:15:17;;;;;;;47.80;18.90;;;;;;;-4.46;91.00;99168.53;4191598;28;20240;-63
2021/12/29 00:17:45;;;;;;;49.60;21.27;;;;;;;-4.50;91.13;99170.44;4214612;28;20447;-64
2021/12/29 00:20:17;;;;;;;57.83;22.03;;;;;;;-4.51;91.67;99168.78;4200141;28;20239;-62
2021/12/29 00:22:43;;;;;;;50.73;20.73;;;;;;;-4.52;91.55;99167.09;4202694;28;20232;-64
2021/12/29 00:25:11;;;;;;;49.97;20.40;;;;;;;-4.53;91.70;99174.97;4220054;28;25087;-64
2021/12/29 00:27:38;;;;;;;51.80;20.47;;;;;;;-4.54;91.43;99166.34;4202889;28;23493;-63
2021/12/29 00:30:09;;;;;;;46.93;19.30;;;;;;;-4.49;91.38;99160.91;4188454;28;25265;-64
2021/12/29 00:32:36;;;;;;;52.03;21.13;;;;;;;-4.51;90.88;99167.94;4187742;28;20699;-63
2021/12/29 00:35:04;;;;;;;45.77;19.93;;;;;;;-4.52;91.16;99166.25;4200915;28;20237;-64
2021/12/29 00:37:30;;;;;;;56.17;23.60;;;;;;;-4.55;91.15;99166.41;4199134;28;20720;-62
2021/12/29 00:39:57;;;;;;;46.27;19.63;;;;;;;-4.52;90.91;99171.44;4185104;28;23109;-63
2021/12/29 00:42:23;;;;;;;56.57;21.70;;;;;;;-4.54;90.76;99168.94;4201923;28;21788;-65
2021/12/29 00:44:50;;;;;;;63.50;22.80;;;;;;;-4.47;91.35;99172.06;4198788;28;20235;-63
2021/12/29 00:47:18;;;;;;;57.57;22.33;;;;;;;-4.48;91.09;99170.38;4190226;28;20232;-64
2021/12/29 00:49:46;;;;;;;52.10;21.17;;;;;;;-4.46;91.03;99166.75;4168011;28;20228;-64
2021/12/29 00:52:13;;;;;;;60.17;24.77;;;;;;;-4.47;90.42;99166.88;4188620;28;20255;-64
2021/12/29 00:54:42;;;;;;;57.37;23.07;;;;;;;-4.45;90.82;99170.19;4183033;28;21708;-64
2021/12/29 00:57:09;;;;;;;57.27;22.50;;;;;;;-4.46;90.72;99179.75;4186386;28;20334;-63
2021/12/29 00:59:35;;;;;;;58.13;24.47;;;;;;;-4.42;90.75;99177.84;4195272;28;20243;-64
2021/12/29 01:02:02;;;;;;;54.20;21.97;;;;;;;-4.44;90.66;99177.09;4185029;28;21619;-64
2021/12/29 01:04:30;;;;;;;54.90;22.13;;;;;;;-4.43;90.59;99177.91;4188060;28;20280;-63
2021/12/29 01:06:56;;;;;;;52.10;21.33;;;;;;;-4.40;90.19;99182.94;4185922;28;20232;-63
2021/12/29 01:09:22;;;;;;;56.60;21.57;;;;;;;-4.42;90.63;99193.41;4197351;28;20303;-64
2021/12/29 01:11:49;;;;;;;53.57;21.73;;;;;;;-4.47;90.85;99190.22;4184050;28;20295;-63
2021/12/29 01:14:21;;;;;;;57.07;23.87;;;;;;;-4.46;90.58;99190.13;4173879;28;20232;-63
2021/12/29 01:16:52;;;;;;;64.10;22.70;;;;;;;-4.42;90.60;99193.41;4186431;28;20225;-64
2021/12/29 01:19:21;;;;;;;56.63;21.57;;;;;;;-4.35;91.07;99186.97;4197283;28;20252;-63
2021/12/29 01:21:51;;;;;;;58.30;23.50;;;;;;;-4.39;90.64;99176.84;4176329;28;20236;-63
2021/12/29 01:24:20;;;;;;;45.43;20.03;;;;;;;-4.34;90.57;99186.03;4185387;28;20331;-63
2021/12/29 01:26:47;;;;;;;51.00;19.87;;;;;;;-4.37;90.14;99186.22;4182734;28;21208;-66
2021/12/29 01:29:13;;;;;;;51.00;20.63;;;;;;;-4.42;90.26;99188.22;4187103;28;20421;-63
2021/12/29 01:31:41;;;;;;;48.40;20.40;;;;;;;-4.41;90.36;99189.88;4182914;28;20295;-65
2021/12/29 01:34:08;;;;;;;48.40;20.90;;;;;;;-4.44;90.54;99182.28;4195073;28;25780;-61
2021/12/29 01:36:36;;;;;;;51.37;20.60;;;;;;;-4.42;90.60;99183.03;4174174;28;21259;-62
2021/12/29 01:39:05;;;;;;;47.93;19.83;;;;;;;-4.41;90.88;99184.69;4186040;28;20245;-63
2021/12/29 01:41:32;;;;;;;48.43;21.20;;;;;;;-4.32;90.54;99186.81;4184860;28;20593;-63
2021/12/29 01:43:59;;;;;;;45.27;19.20;;;;;;;-4.37;90.82;99180.19;4188207;28;20688;-67
2021/12/29 01:46:25;;;;;;;43.40;19.13;;;;;;;-4.36;91.06;99193.06;4214424;28;20267;-63
2021/12/29 01:48:52;;;;;;;49.77;19.97;;;;;;;-4.42;90.88;99182.19;4186595;28;20646;-63
2021/12/29 01:51:20;;;;;;;47.20;20.03;;;;;;;-4.40;91.02;99182.94;4191184;28;20703;-65
2021/12/29 01:54:02;;;;;;;43.53;18.70;;;;;;;-4.39;91.23;99179.44;4186358;28;20244;-63
2021/12/29 01:56:30;;;;;;;41.60;18.40;;;;;;;-4.32;90.65;99188.56;4180836;28;21237;-63
2021/12/29 01:58:57;;;;;;;44.47;19.10;;;;;;;-4.39;90.88;99192.41;4180515;28;20261;-65
2021/12/29 02:01:24;;;;;;;43.27;19.17;;;;;;;-4.41;91.02;99184.69;4172161;28;20306;-63
2021/12/29 02:03:52;;;;;;;44.40;19.23;;;;;;;-4.42;91.16;99185.63;4184461;28;21066;-63
2021/12/29 02:06:19;;;;;;;46.17;18.67;;;;;;;-4.37;91.30;99175.84;4197834;28;20250;-64
2021/12/29 02:08:45;;;;;;;41.87;17.80;;;;;;;-4.37;90.92;99175.84;4206110;28;20674;-64
2021/12/29 02:11:12;;;;;;;46.23;18.50;;;;;;;-4.38;91.03;99173.31;4190936;28;20231;-64
2021/12/29 02:13:38;;;;;;;47.37;19.43;;;;;;;-4.42;91.26;99170.06;4201909;28;20728;-63
2021/12/29 02:16:06;;;;;;;42.13;19.03;;;;;;;-4.46;91.29;99176.31;4184189;28;20233;-63
2021/12/29 02:18:34;;;;;;;39.37;17.67;;;;;;;-4.42;91.78;99164.03;4181408;28;20305;-63
2021/12/29 02:21:01;;;;;;;41.90;17.93;;;;;;;-4.46;91.30;99145.16;4201327;28;20236;-63
2021/12/29 02:23:34;;;;;;;48.23;20.10;;;;;;;-4.42;91.15;99159.66;4179737;28;20228;-62
2021/12/29 02:26:02;;;;;;;46.30;18.93;;;;;;;-4.39;91.25;99150.88;4186574;28;21679;-64
2021/12/29 02:28:33;;;;;;;48.50;18.67;;;;;;;-4.41;91.36;99150.94;4191186;28;20662;-63
2021/12/29 02:31:01;;;;;;;49.13;18.43;;;;;;;-4.39;91.62;99154.31;4184906;28;20308;-63
2021/12/29 02:33:30;;;;;;;47.67;18.47;;;;;;;-4.40;91.13;99164.75;4219916;28;20243;-64
2021/12/29 02:35:58;;;;;;;45.23;18.77;;;;;;;-4.41;91.65;99158.72;4186170;28;20230;-64
2021/12/29 02:38:28;;;;;;;48.97;20.70;;;;;;;-4.41;91.29;99158.72;4185428;28;21579;-62
2021/12/29 02:40:58;;;;;;;43.77;18.93;;;;;;;-4.43;91.78;99149.34;4172483;28;20695;-64
2021/12/29 02:43:25;;;;;;;47.17;19.70;;;;;;;-4.41;91.94;99158.72;4180324;28;20251;-61
2021/12/29 02:45:58;;;;;;;50.03;20.10;;;;;;;-4.37;91.79;99159.41;4175512;28;20271;-63
2021/12/29 02:48:30;;;;;;;46.23;20.20;;;;;;;-4.40;91.80;99164.75;4185853;28;22213;-63
2021/12/29 02:50:59;;;;;;;45.93;19.47;;;;;;;-4.39;91.60;99166.44;4182431;28;20228;-64
2021/12/29 02:53:27;;;;;;;53.23;20.63;;;;;;;-4.26;91.64;99172.66;4194511;28;21568;-63
2021/12/29 02:55:54;;;;;;;48.17;20.70;;;;;;;-4.23;91.76;99163.88;4174551;28;20577;-63
2021/12/29 02:58:22;;;;;;;47.07;19.70;;;;;;;-4.27;91.53;99168.38;4185380;28;20232;-65
2021/12/29 03:00:50;;;;;;;45.30;20.33;;;;;;;-4.26;91.49;99173.50;4202922;28;22758;-63
2021/12/29 03:03:18;;;;;;;47.07;20.20;;;;;;;-4.31;91.28;99165.13;4179170;28;20383;-62
2021/12/29 03:05:45;;;;;;;44.13;18.97;;;;;;;-4.33;91.45;99161.78;4202345;28;20244;-65
2021/12/29 03:08:13;;;;;;;46.23;20.43;;;;;;;-4.26;91.79;99168.31;4198388;28;21600;-64
2021/12/29 03:10:41;;;;;;;47.63;21.40;;;;;;;-4.28;91.02;99164.94;4185824;28;20243;-62
2021/12/29 03:13:08;;;;;;;53.43;19.30;;;;;;;-4.31;91.91;99167.72;4187865;28;21427;-62
2021/12/29 03:15:36;;;;;;;47.53;20.67;;;;;;;-4.28;91.43;99159.75;4197346;28;21313;-63
2021/12/29 03:18:04;;;;;;;53.07;21.20;;;;;;;-4.31;91.33;99159.94;4199963;28;20411;-63
2021/12/29 03:20:31;;;;;;;43.77;19.77;;;;;;;-4.30;91.89;99158.16;4200860;28;20240;-63
2021/12/29 03:22:58;;;;;;;47.27;18.90;;;;;;;-4.31;91.71;99161.66;4198277;28;20314;-62
2021/12/29 03:25:25;;;;;;;51.57;20.37;;;;;;;-4.29;91.77;99159.81;4199178;28;20236;-63
2021/12/29 03:27:59;;;;;;;50.53;19.80;;;;;;;-4.26;91.89;99168.31;4189059;28;20284;-63
2021/12/29 03:30:28;;;;;;;54.57;21.07;;;;;;;-4.29;92.02;99163.25;4202516;28;20406;-65
2021/12/29 03:33:05;;;;;;;46.10;20.80;;;;;;;-4.26;91.68;99178.69;4196619;28;20232;-63
2021/12/29 03:35:34;;;;;;;47.23;19.83;;;;;;;-4.28;91.77;99175.34;4198756;28;21534;-62
2021/12/29 03:38:03;;;;;;;52.80;20.40;;;;;;;-4.28;91.92;99175.34;4201890;28;20302;-63
2021/12/29 03:40:30;;;;;;;50.73;21.00;;;;;;;-4.23;91.70;99180.28;4197387;28;20230;-64
2021/12/29 03:42:57;;;;;;;52.67;20.70;;;;;;;-4.17;91.92;99182.53;4201244;28;20362;-64
2021/12/29 03:45:24;;;;;;;49.07;21.50;;;;;;;-4.16;91.68;99183.41;4197601;28;20233;-63
2021/12/29 03:47:50;;;;;;;52.73;20.57;;;;;;;-4.19;91.91;99174.00;4198977;28;20241;-67
2021/12/29 03:50:17;;;;;;;50.37;21.20;;;;;;;-4.16;91.93;99178.19;4199564;28;20366;-61
2021/12/29 03:52:44;;;;;;;58.13;21.80;;;;;;;-4.19;91.97;99173.16;4201899;28;20508;-63
2021/12/29 03:55:11;;;;;;;51.73;21.40;;;;;;;-4.25;91.59;99176.94;4202681;28;20229;-62
2021/12/29 03:57:38;;;;;;;49.20;20.90;;;;;;;-4.25;91.74;99169.97;4202945;28;21120;-65
2021/12/29 04:00:11;;;;;;;51.27;20.70;;;;;;;-4.21;91.63;99167.19;4196852;28;20239;-65
2021/12/29 04:02:38;;;;;;;55.40;20.27;;;;;;;-4.29;92.12;99168.44;4189063;28;20701;-62
2021/12/29 04:05:07;;;;;;;47.80;20.07;;;;;;;-4.23;91.88;99161.28;4197429;28;20234;-64
2021/12/29 04:07:33;;;;;;;47.23;20.37;;;;;;;-4.25;92.26;99169.97;4208979;28;20231;-63
2021/12/29 04:10:00;;;;;;;50.17;20.57;;;;;;;-4.23;92.15;99177.69;4182175;28;20244;-64
2021/12/29 04:12:26;;;;;;;51.47;20.03;;;;;;;-4.21;91.61;99165.47;4186663;28;20296;-63
2021/12/29 04:14:53;;;;;;;53.67;21.23;;;;;;;-4.28;92.51;99164.94;4216076;28;22518;-65
2021/12/29 04:17:28;;;;;;;51.93;20.67;;;;;;;-4.30;92.43;99165.97;4201873;28;21836;-65
2021/12/29 04:22:41;;;;;;;46.67;19.97;;;;;;;-4.27;92.51;99160.59;4217665;28;20223;-61
2021/12/29 04:25:07;;;;;;;51.07;21.10;;;;;;;-4.30;92.79;99166.78;4192059;28;20311;-62
2021/12/29 04:27:34;;;;;;;54.33;21.23;;;;;;;-4.21;92.41;99159.41;4201106;28;20341;-65
2021/12/29 04:30:00;;;;;;;46.27;20.87;;;;;;;-4.28;92.83;99159.75;4198086;28;20316;-65
2021/12/29 04:32:27;;;;;;;53.10;20.60;;;;;;;-4.23;92.87;99161.28;4198995;28;20454;-63
2021/12/29 04:34:53;;;;;;;54.33;21.73;;;;;;;-4.25;92.72;99151.78;4196589;28;21902;-62
2021/12/29 04:37:20;;;;;;;52.53;22.87;;;;;;;-4.33;92.83;99143.59;4188276;28;20270;-61
2021/12/29 04:39:46;;;;;;;58.43;22.67;;;;;;;-4.32;93.23;99140.06;4197040;28;20384;-63
2021/12/29 04:42:13;;;;;;;53.70;22.30;;;;;;;-4.32;92.90;99141.81;4195755;28;20337;-64
2021/12/29 04:44:39;;;;;;;50.20;20.53;;;;;;;-4.30;93.33;99151.22;4212097;28;20264;-64
2021/12/29 04:47:11;;;;;;;52.40;22.03;;;;;;;-4.32;93.30;99145.25;4207032;28;20280;-66
2021/12/29 04:49:42;;;;;;;54.27;22.33;;;;;;;-4.34;93.34;99141.06;4189233;28;21381;-62
2021/12/29 04:52:10;;;;;;;53.10;20.83;;;;;;;-4.33;93.58;99146.19;4213620;28;20903;-63
2021/12/29 04:54:38;;;;;;;54.77;21.30;;;;;;;-4.34;93.62;99149.69;4189806;28;25617;-62
2021/12/29 04:57:05;;;;;;;53.07;20.73;;;;;;;-4.29;93.94;99150.28;4195827;28;22747;-66
2021/12/29 04:59:32;;;;;;;54.10;22.00;;;;;;;-4.30;93.11;99146.00;4210392;28;20243;-63
2021/12/29 05:01:58;;;;;;;54.93;21.50;;;;;;;-4.35;93.30;99145.44;4187303;28;20229;-62
2021/12/29 05:04:33;;;;;;;53.67;21.73;;;;;;;-4.31;93.60;99143.50;4196681;28;20266;-63
2021/12/29 05:09:46;;;;;;;54.50;21.77;;;;;;;-4.28;93.33;99151.97;4196163;28;20314;-63
2021/12/29 05:12:13;;;;;;;54.37;22.30;;;;;;;-4.31;93.69;99148.69;4200320;28;20241;-61
2021/12/29 05:14:39;;;;;;;55.43;20.93;;;;;;;-4.27;93.32;99151.03;4194380;28;20229;-63
2021/12/29 05:17:07;;;;;;;66.83;23.53;;;;;;;-4.35;93.47;99140.25;4213143;28;21387;-62
2021/12/29 05:19:34;;;;;;;54.20;23.23;;;;;;;-4.37;93.77;99147.28;4201128;28;20235;-64
2021/12/29 05:22:00;;;;;;;57.80;21.80;;;;;;;-4.33;93.68;99161.78;4199579;28;20235;-62
2021/12/29 05:24:27;;;;;;;53.10;20.87;;;;;;;-4.35;94.11;99158.41;4190087;28;20341;-65
2021/12/29 05:26:54;;;;;;;55.57;22.17;;;;;;;-4.37;93.77;99155.06;4177840;28;20829;-65
2021/12/29 05:29:22;;;;;;;56.17;22.07;;;;;;;-4.35;94.03;99160.19;4199066;28;21288;-65
2021/12/29 05:31:49;;;;;;;50.40;19.97;;;;;;;-4.36;93.64;99159.31;4197920;28;20247;-64
2021/12/29 05:34:16;;;;;;;50.53;20.90;;;;;;;-4.35;94.14;99162.78;4199835;28;20867;-65
2021/12/29 05:36:42;;;;;;;55.03;20.93;;;;;;;-4.33;94.02;99166.97;4199510;28;20683;-65
2021/12/29 05:39:09;;;;;;;57.57;21.23;;;;;;;-4.36;93.82;99161.09;4191018;28;20240;-65
2021/12/29 05:41:36;;;;;;;52.40;20.53;;;;;;;-4.32;93.50;99168.63;4183884;28;20415;-65
2021/12/29 05:44:02;;;;;;;59.17;23.10;;;;;;;-4.34;93.48;99173.06;4190023;28;21014;-65
2021/12/29 05:46:29;;;;;;;58.33;21.10;;;;;;;-4.36;93.67;99158.50;4198636;28;20234;-65
2021/12/29 05:48:55;;;;;;;52.93;21.37;;;;;;;-4.38;94.00;99184.53;4185189;28;20236;-64
2021/12/29 05:51:22;;;;;;;55.67;22.10;;;;;;;-4.41;94.18;99184.69;4204017;28;20239;-65
2021/12/29 05:53:50;;;;;;;54.43;20.00;;;;;;;-4.35;94.26;99176.59;4198432;28;22058;-64
2021/12/29 05:56:16;;;;;;;59.80;20.83;;;;;;;-4.40;94.35;99180.34;4200836;28;20246;-64
2021/12/29 05:58:43;;;;;;;57.17;21.10;;;;;;;-4.44;94.26;99174.47;4199318;28;21224;-66
2021/12/29 06:01:10;;;;;;;56.83;21.27;;;;;;;-4.39;94.56;99184.63;4199859;28;21212;-67
2021/12/29 06:03:37;;;;;;;52.53;21.67;;;;;;;-4.38;94.45;99178.50;4187443;28;21257;-64
2021/12/29 06:06:04;;;;;;;57.37;22.00;;;;;;;-4.33;94.59;99176.50;4198766;28;20227;-64
2021/12/29 06:08:30;;;;;;;55.00;22.20;;;;;;;-4.37;94.20;99186.22;4196384;28;20385;-64
2021/12/29 06:10:57;;;;;;;65.37;23.80;;;;;;;-4.45;94.10;99183.19;4180521;28;21335;-64
2021/12/29 06:13:24;;;;;;;61.30;22.37;;;;;;;-4.42;94.36;99192.59;4201012;28;20240;-65
2021/12/29 06:15:50;;;;;;;56.60;21.73;;;;;;;-4.45;94.87;99188.38;4198710;28;21539;-65
2021/12/29 06:18:17;;;;;;;61.83;22.80;;;;;;;-4.42;94.31;99184.81;4197954;28;20231;-66
2021/12/29 06:20:43;;;;;;;58.77;21.57;;;;;;;-4.42;94.10;99183.03;4185525;28;21810;-65
2021/12/29 06:23:13;;;;;;;59.17;22.20;;;;;;;-4.46;94.58;99192.72;4197620;28;21913;-65
2021/12/29 06:25:40;;;;;;;59.10;21.70;;;;;;;-4.39;94.65;99198.44;4193479;28;22207;-67
2021/12/29 06:28:07;;;;;;;62.07;23.13;;;;;;;-4.36;94.55;99194.84;4187946;28;22465;-66
2021/12/29 06:30:33;;;;;;;64.03;23.13;;;;;;;-4.45;94.51;99203.94;4181624;28;20235;-64
2021/12/29 06:33:00;;;;;;;67.13;22.03;;;;;;;-4.41;94.70;99200.28;4199315;28;20243;-66
2021/12/29 06:35:27;;;;;;;64.27;23.40;;;;;;;-4.46;94.91;99197.09;4200245;28;20348;-67
2021/12/29 06:37:53;;;;;;;58.27;22.50;;;;;;;-4.44;94.84;99210.00;4187243;28;22041;-64
2021/12/29 06:40:20;;;;;;;68.57;22.40;;;;;;;-4.43;95.21;99196.09;4193639;28;20394;-66
2021/12/29 06:42:46;;;;;;;59.10;24.17;;;;;;;-4.47;94.71;99198.03;4182658;28;20291;-67
2021/12/29 06:45:13;;;;;;;61.50;23.77;;;;;;;-4.53;95.62;99201.75;4189751;28;20236;-64
2021/12/29 06:47:39;;;;;;;62.13;22.70;;;;;;;-4.47;95.71;99203.22;4186304;28;21690;-65
2021/12/29 06:50:08;;;;;;;63.33;23.17;;;;;;;-4.47;95.55;99208.41;4192997;28;21649;-64
2021/12/29 06:52:34;;;;;;;65.67;24.43;;;;;;;-4.48;95.97;99219.69;4197105;28;22321;-65
2021/12/29 06:55:01;;;;;;;68.63;24.90;;;;;;;-4.48;96.28;99206.72;4189284;28;21587;-63
2021/12/29 06:57:27;;;;;;;73.37;26.80;;;;;;;-4.52;96.14;99216.44;4195122;28;20294;-66
2021/12/29 06:59:54;;;;;;;59.10;24.30;;;;;;;-4.49;96.42;99216.25;4196655;28;20225;-66
2021/12/29 07:02:21;;;;;;;72.23;26.07;;;;;;;-4.47;96.42;99214.44;4178837;28;22960;-64
2021/12/29 07:04:47;;;;;;;69.50;25.20;;;;;;;-4.43;96.01;99216.84;4165986;28;21303;-67
2021/12/29 07:07:19;;;;;;;72.27;25.23;;;;;;;-4.40;95.93;99222.75;4200117;28;20238;-68
2021/12/29 07:09:46;;;;;;;73.40;25.23;;;;;;;-4.34;96.06;99218.97;4191711;28;20231;-69
2021/12/29 07:12:12;;;;;;;65.07;26.17;;;;;;;-4.40;95.70;99233.13;4193937;28;22930;-67
2021/12/29 07:14:39;;;;;;;66.80;25.77;;;;;;;-4.38;96.00;99228.66;4195394;28;20228;-65
2021/12/29 07:17:07;;;;;;;67.33;26.10;;;;;;;-4.47;95.90;99229.19;4185495;28;20226;-67
2021/12/29 07:19:34;;;;;;;67.23;25.37;;;;;;;-4.42;96.11;99229.78;4182743;28;21666;-69
2021/12/29 07:22:02;;;;;;;69.00;24.70;;;;;;;-4.38;96.09;99223.47;4182424;28;20757;-68
2021/12/29 07:24:28;;;;;;;65.93;25.10;;;;;;;-4.42;96.53;99229.78;4201779;28;23257;-67
2021/12/29 07:26:54;;;;;;;71.07;26.23;;;;;;;-4.41;96.08;99236.63;4173349;28;20241;-67
2021/12/29 07:29:21;;;;;;;68.10;25.77;;;;;;;-4.40;96.58;99230.53;4196947;28;20255;-65
2021/12/29 07:31:48;;;;;;;73.53;24.90;;;;;;;-4.39;96.77;99234.78;4191352;28;20317;-67
2021/12/29 07:34:19;;;;;;;77.30;28.00;;;;;;;-4.35;96.63;99230.28;4191526;28;20316;-67
2021/12/29 07:36:45;;;;;;;75.20;26.47;;;;;;;-4.32;95.97;99220.56;4203684;28;20240;-67
2021/12/29 07:39:14;;;;;;;71.70;27.00;;;;;;;-4.37;95.99;99230.38;4198519;28;20297;-69
2021/12/29 07:41:42;;;;;;;78.17;27.47;;;;;;;-4.35;96.28;99218.13;4167432;28;21783;-65
2021/12/29 07:44:11;;;;;;;71.73;25.37;;;;;;;-4.28;96.09;99221.25;4172527;28;20331;-64
2021/12/29 07:46:38;;;;;;;69.53;26.70;;;;;;;-4.26;96.05;99219.41;4192529;28;20241;-66
2021/12/29 07:49:05;;;;;;;78.93;26.73;;;;;;;-4.35;96.60;99218.13;4189053;28;21068;-66
2021/12/29 07:51:32;;;;;;;79.33;27.40;;;;;;;-4.35;96.52;99227.69;4190613;28;20629;-66
2021/12/29 07:53:59;;;;;;;74.43;27.33;;;;;;;-4.29;96.02;99223.00;4188477;28;20419;-65
2021/12/29 07:56:26;;;;;;;78.10;29.47;;;;;;;-4.31;96.06;99226.59;4184915;28;20308;-65
2021/12/29 07:58:53;;;;;;;83.37;28.23;;;;;;;-4.32;96.05;99222.31;4191786;28;20278;-65
2021/12/29 08:01:19;;;;;;;76.77;26.80;;;;;;;-4.34;96.32;99232.78;4181472;28;21538;-66
2021/12/29 08:03:46;;;;;;;85.73;29.43;;;;;;;-4.37;96.65;99230.38;4185558;28;21560;-65
2021/12/29 08:06:15;;;;;;;80.57;29.27;;;;;;;-4.27;96.67;99231.53;4199634;28;20249;-65
2021/12/29 08:08:42;;;;;;;78.23;29.33;;;;;;;-4.27;96.42;99234.13;4189450;28;22089;-65
2021/12/29 08:11:09;;;;;;;85.40;30.30;;;;;;;-4.25;96.63;99234.91;4180173;28;20240;-65
2021/12/29 08:13:36;;;;;;;94.23;30.37;;;;;;;-4.26;96.62;99241.03;4184938;28;20248;-65
2021/12/29 08:16:02;;;;;;;79.47;30.90;;;;;;;-4.25;96.57;99244.47;4184050;28;21818;-67
2021/12/29 08:18:29;;;;;;;88.27;30.50;;;;;;;-4.32;97.09;99240.50;4181788;28;20241;-66
2021/12/29 08:20:55;;;;;;;98.17;30.23;;;;;;;-4.32;97.59;99237.91;4196309;28;20245;-66
2021/12/29 08:23:22;;;;;;;80.17;30.80;;;;;;;-4.30;97.06;99236.06;4188464;28;20295;-67
2021/12/29 08:25:49;;;;;;;91.53;30.67;;;;;;;-4.25;97.65;99232.31;4186371;28;21694;-67
2021/12/29 08:28:15;;;;;;;89.10;31.10;;;;;;;-4.21;96.85;99234.72;4192595;28;20236;-66
2021/12/29 08:30:42;;;;;;;89.63;30.07;;;;;;;-4.29;96.94;99235.97;4189493;28;21822;-64
2021/12/29 08:33:08;;;;;;;85.90;31.43;;;;;;;-4.29;97.54;99238.56;4181728;28;20286;-66
2021/12/29 08:35:35;;;;;;;86.57;29.77;;;;;;;-4.27;97.50;99235.91;4178872;28;20241;-67
2021/12/29 08:38:03;;;;;;;91.03;32.23;;;;;;;-4.28;97.10;99223.84;4203344;28;20547;-67
2021/12/29 08:40:29;;;;;;;108.43;32.57;;;;;;;-4.25;97.20;99221.91;4190032;28;20433;-67
2021/12/29 08:42:58;;;;;;;99.23;32.73;;;;;;;-4.25;97.56;99214.13;4189322;28;21624;-67
2021/12/29 08:45:26;;;;;;;105.57;33.93;;;;;;;-4.14;97.40;99213.56;4188773;28;20227;-69
2021/12/29 08:47:57;;;;;;;98.33;32.57;;;;;;;-4.03;97.31;99237.22;4178558;28;20244;-67
2021/12/29 08:50:29;;;;;;;107.57;32.73;;;;;;;-4.03;96.98;99246.75;4193927;28;20240;-75
2021/12/29 08:52:57;;;;;;;91.87;32.03;;;;;;;-3.92;96.66;99254.81;4178605;28;20242;-67
2021/12/29 08:55:24;;;;;;;104.53;31.17;;;;;;;-3.90;96.17;99268.56;4195892;28;25501;-68
2021/12/29 08:57:50;;;;;;;93.90;32.90;;;;;;;-3.89;96.22;99254.63;4192174;28;22455;-66
2021/12/29 09:00:17;;;;;;;95.30;33.07;;;;;;;-4.00;95.90;99253.53;4196487;28;20595;-66
2021/12/29 09:02:44;;;;;;;98.43;33.50;;;;;;;-4.03;96.62;99259.72;4191327;28;20245;-64
2021/12/29 09:05:12;;;;;;;99.27;34.67;;;;;;;-3.95;96.66;99259.34;4206516;28;22022;-63
2021/12/29 09:07:39;;;;;;;102.80;34.63;;;;;;;-3.83;97.18;99264.69;4181266;28;20394;-67
2021/12/29 09:10:07;;;;;;;109.00;34.17;;;;;;;-3.71;96.35;99270.16;4207283;28;20270;-65
2021/12/29 09:12:34;;;;;;;103.57;33.60;;;;;;;-3.62;96.54;99273.09;4184809;28;20298;-67
2021/12/29 09:15:01;;;;;;;104.60;34.90;;;;;;;-3.56;95.49;99269.28;4189982;28;21029;-66
2021/12/29 09:17:28;;;;;;;97.07;32.80;;;;;;;-3.49;94.48;99270.66;4178251;28;20279;-66
2021/12/29 09:19:55;;;;;;;106.37;34.70;;;;;;;-3.55;94.22;99284.00;4201335;28;21813;-67
2021/12/29 09:22:22;;;;;;;101.30;34.30;;;;;;;-3.64;95.07;99285.31;4206850;28;20241;-70
2021/12/29 09:24:49;;;;;;;97.97;34.17;;;;;;;-3.68;95.69;99272.59;4178832;28;20316;-71
2021/12/29 09:27:16;;;;;;;93.17;30.80;;;;;;;-3.73;95.46;99269.41;4199202;28;20696;-63
2021/12/29 09:29:43;;;;;;;99.67;36.20;;;;;;;-3.76;95.61;99269.56;4188952;28;20237;-69
2021/12/29 09:32:10;;;;;;;99.33;34.07;;;;;;;-3.75;95.69;99271.25;4187403;28;20232;-68
2021/12/29 09:34:36;;;;;;;100.97;34.00;;;;;;;-3.74;96.21;99263.38;4190984;28;20251;-68
2021/12/29 09:37:04;;;;;;;102.37;35.30;;;;;;;-3.82;96.02;99255.13;4181574;28;20279;-68
2021/12/29 09:39:32;;;;;;;105.63;35.87;;;;;;;-3.89;96.37;99249.44;4199126;28;21475;-69
2021/12/29 09:41:58;;;;;;;105.00;35.67;;;;;;;-3.88;96.81;99251.13;4176633;28;20252;-68
2021/12/29 09:44:25;;;;;;;98.30;32.73;;;;;;;-3.85;97.01;99248.34;4176670;28;20500;-68
2021/12/29 09:46:53;;;;;;;94.73;34.47;;;;;;;-3.87;96.89;99241.56;4195189;28;20315;-69
2021/12/29 09:49:21;;;;;;;102.63;34.07;;;;;;;-3.75;97.02;99255.66;4182459;28;23887;-70
2021/12/29 09:51:50;;;;;;;96.33;34.30;;;;;;;-3.74;96.58;99254.75;4182619;28;21648;-68
2021/12/29 09:54:17;;;;;;;105.57;34.93;;;;;;;-3.74;96.88;99254.75;4200954;28;20244;-69
2021/12/29 09:56:44;;;;;;;101.77;34.97;;;;;;;-3.69;96.05;99263.13;4196967;28;20454;-69
2021/12/29 09:59:10;;;;;;;106.17;35.17;;;;;;;-3.64;96.34;99256.72;4185938;28;20292;-69
2021/12/29 10:01:37;;;;;;;123.03;39.67;;;;;;;-3.68;96.28;99254.38;4186888;28;20315;-70
2021/12/29 10:04:04;;;;;;;104.27;35.50;;;;;;;-3.57;96.33;99248.59;4176661;28;20646;-69
2021/12/29 10:06:31;;;;;;;108.13;35.70;;;;;;;-3.58;95.50;99260.78;4190313;28;20328;-69
2021/12/29 10:09:09;;;;;;;109.43;35.33;;;;;;;-3.47;95.48;99260.16;4206248;28;20278;-68
2021/12/29 10:11:36;;;;;;;107.23;35.83;;;;;;;-3.42;95.22;99261.59;4188034;28;22891;-63
2021/12/29 10:14:11;;;;;;;103.73;34.73;;;;;;;-3.38;95.08;99264.84;4188260;28;20347;-68
2021/12/29 10:16:38;;;;;;;103.43;35.23;;;;;;;-3.31;94.83;99260.16;4186766;28;20310;-69
2021/12/29 10:19:12;;;;;;;106.93;37.43;;;;;;;-3.43;95.03;99257.31;4184798;28;20359;-68
2021/12/29 10:21:46;;;;;;;103.53;35.57;;;;;;;-3.45;95.51;99251.34;4188008;28;20240;-69
2021/12/29 10:24:15;;;;;;;103.73;35.70;;;;;;;-3.41;94.46;99259.81;4185862;28;20223;-67
2021/12/29 10:26:45;;;;;;;102.47;35.03;;;;;;;-3.38;94.54;99261.41;4182703;28;20239;-67
2021/12/29 10:29:17;;;;;;;106.50;35.63;;;;;;;-3.32;94.85;99274.09;4200871;28;20387;-67
2021/12/29 10:31:47;;;;;;;108.70;34.63;;;;;;;-3.23;94.46;99268.34;4204637;28;20233;-67
2021/12/29 10:34:18;;;;;;;107.20;34.60;;;;;;;-3.26;93.84;99271.13;4206457;28;20243;-69
2021/12/29 10:37:04;;;;;;;110.57;35.67;;;;;;;-3.48;94.82;99263.69;4180075;28;21547;-66
2021/12/29 10:39:36;;;;;;;114.43;37.17;;;;;;;-3.49;95.87;99257.66;4191125;28;25691;-69
2021/12/29 10:42:07;;;;;;;113.33;37.17;;;;;;;-3.54;96.29;99254.47;4196357;28;21725;-69
2021/12/29 10:44:34;;;;;;;118.83;36.53;;;;;;;-3.52;96.69;99246.59;4212741;28;20353;-68
2021/12/29 10:47:15;;;;;;;117.83;38.13;;;;;;;-3.44;96.18;99249.59;4195193;28;21707;-67
2021/12/29 10:49:54;;;;;;;116.43;37.63;;;;;;;-3.31;95.58;99245.38;4186450;28;21639;-68
2021/12/29 10:52:34;;;;;;;115.73;37.37;;;;;;;-3.26;95.49;99251.16;4179021;28;22754;-69
2021/12/29 10:55:04;;;;;;;119.60;39.90;;;;;;;-3.15;95.01;99247.94;4187196;28;20374;-69
2021/12/29 10:57:30;;;;;;;111.13;39.60;;;;;;;-3.19;94.27;99249.88;4193795;28;25404;-67
2021/12/29 11:00:02;;;;;;;113.93;37.57;;;;;;;-3.22;94.82;99255.25;4197294;28;23588;-68
2021/12/29 11:02:31;;;;;;;104.90;37.77;;;;;;;-3.20;94.82;99250.81;4211678;28;20339;-67
2021/12/29 11:05:04;;;;;;;110.20;37.23;;;;;;;-3.16;95.12;99253.22;4190947;28;20248;-68
2021/12/29 11:07:32;;;;;;;115.17;38.27;;;;;;;-3.25;94.70;99249.41;4179395;28;21508;-67
2021/12/29 11:10:13;;;;;;;106.40;37.20;;;;;;;-3.14;94.32;99248.78;4186269;28;20239;-67
2021/12/29 11:12:44;;;;;;;104.37;36.53;;;;;;;-2.99;94.26;99255.72;4195893;28;20229;-67
2021/12/29 11:15:18;;;;;;;108.77;38.40;;;;;;;-3.01;93.81;99258.41;4192163;28;21298;-67
2021/12/29 11:17:45;;;;;;;107.17;38.00;;;;;;;-3.03;93.36;99249.84;4198459;28;23477;-67
2021/12/29 11:20:17;;;;;;;102.13;36.03;;;;;;;-3.03;93.39;99249.00;4180839;28;20296;-66
2021/12/29 11:22:44;;;;;;;103.97;36.87;;;;;;;-3.16;93.89;99248.88;4178009;28;20298;-67
2021/12/29 11:25:11;;;;;;;109.23;37.33;;;;;;;-3.21;94.48;99253.50;4177878;28;20232;-68